createdAt,value
2019-05-20T00:01:29.182Z,8.00
2019-05-20T00:03:58.653Z,8.80
2019-05-20T00:06:28.257Z,7.33
2019-05-20T00:08:57.838Z,7.60
2019-05-20T00:11:27.346Z,6.70
2019-05-20T00:13:56.853Z,6.53
2019-05-20T00:16:26.418Z,6.50
2019-05-20T00:18:55.867Z,6.37
2019-05-20T00:21:25.483Z,5.13
2019-05-20T00:23:55.015Z,5.03
2019-05-20T00:26:24.673Z,6.27
2019-05-20T00:28:54.204Z,5.40
2019-05-20T00:31:23.785Z,4.87
2019-05-20T00:33:53.250Z,5.70
2019-05-20T00:36:22.740Z,6.33
2019-05-20T00:39:14.180Z,5.00
2019-05-20T00:41:43.692Z,4.07
2019-05-20T00:44:13.121Z,4.03
2019-05-20T00:46:42.514Z,3.60
2019-05-20T00:49:14.942Z,3.60
2019-05-20T00:51:44.571Z,3.70
2019-05-20T00:54:14.242Z,3.50
2019-05-20T00:56:43.785Z,3.97
2019-05-20T00:59:13.348Z,4.33
2019-05-20T01:01:42.892Z,4.40
2019-05-20T01:04:12.328Z,4.30
2019-05-20T01:06:41.911Z,4.10
2019-05-20T01:09:11.488Z,4.13
2019-05-20T01:11:41.030Z,4.50
2019-05-20T01:14:10.557Z,4.70
2019-05-20T01:16:40.062Z,7.13
2019-05-20T01:19:09.745Z,6.00
2019-05-20T01:21:39.276Z,4.50
2019-05-20T01:24:08.747Z,5.40
2019-05-20T01:26:38.432Z,4.70
2019-05-20T01:29:07.847Z,4.00
2019-05-20T01:31:37.398Z,4.80
2019-05-20T01:34:06.969Z,4.03
2019-05-20T01:36:36.541Z,4.30
2019-05-20T01:39:07.433Z,4.37
2019-05-20T01:41:36.916Z,4.03
2019-05-20T01:44:06.441Z,4.63
2019-05-20T01:46:36.045Z,4.20
2019-05-20T01:49:05.497Z,4.20
2019-05-20T01:51:35.035Z,4.40
2019-05-20T01:54:04.520Z,5.57
2019-05-20T01:56:34.009Z,4.90
2019-05-20T01:59:03.505Z,4.33
2019-05-20T02:01:32.994Z,4.20
2019-05-20T02:04:02.560Z,4.50
2019-05-20T02:06:32.022Z,5.23
2019-05-20T02:09:01.568Z,5.90
2019-05-20T02:11:31.092Z,5.20
2019-05-20T02:14:05.270Z,5.80
2019-05-20T02:16:34.781Z,4.40
2019-05-20T02:19:04.711Z,6.70
2019-05-20T02:21:34.156Z,4.70
2019-05-20T02:24:03.695Z,5.27
2019-05-20T02:26:33.211Z,7.13
2019-05-20T02:29:02.826Z,4.63
2019-05-20T02:31:32.405Z,6.17
2019-05-20T02:34:01.964Z,6.13
2019-05-20T02:36:31.951Z,5.23
2019-05-20T02:39:02.152Z,5.57
2019-05-20T02:41:31.620Z,5.70
2019-05-20T02:44:01.163Z,5.57
2019-05-20T02:46:31.037Z,9.13
2019-05-20T02:49:00.526Z,5.70
2019-05-20T02:51:32.890Z,6.13
2019-05-20T02:54:03.156Z,5.23
2019-05-20T02:56:32.961Z,4.70
2019-05-20T02:59:02.541Z,4.40
2019-05-20T03:01:32.050Z,5.03
2019-05-20T03:04:11.653Z,4.10
2019-05-20T03:06:33.253Z,6.13
2019-05-20T03:09:02.751Z,3.70
2019-05-20T03:11:32.206Z,3.53
2019-05-20T03:14:01.690Z,4.07
2019-05-20T03:16:31.187Z,5.90
2019-05-20T03:19:00.753Z,3.10
2019-05-20T03:21:30.330Z,3.20
2019-05-20T03:23:59.807Z,3.27
2019-05-20T03:26:29.411Z,3.17
2019-05-20T03:28:58.973Z,3.30
2019-05-20T03:31:28.569Z,2.80
2019-05-20T03:33:58.082Z,3.43
2019-05-20T03:36:27.665Z,3.30
2019-05-20T03:38:57.118Z,2.80
2019-05-20T03:41:26.657Z,2.73
2019-05-20T03:43:56.323Z,3.30
2019-05-20T03:46:25.803Z,2.87
2019-05-20T03:48:55.278Z,3.00
2019-05-20T03:51:24.942Z,3.93
2019-05-20T03:53:54.532Z,2.73
2019-05-20T03:56:24.019Z,2.70
2019-05-20T03:58:53.511Z,2.80
2019-05-20T04:01:23.094Z,2.90
2019-05-20T04:03:52.628Z,3.63
2019-05-20T04:06:22.003Z,2.77
2019-05-20T04:09:36.174Z,3.20
2019-05-20T04:12:05.834Z,4.03
2019-05-20T04:14:35.694Z,2.63
2019-05-20T04:17:05.255Z,2.77
2019-05-20T04:19:34.681Z,2.70
2019-05-20T04:22:04.238Z,2.80
2019-05-20T04:24:33.621Z,2.70
2019-05-20T04:27:03.369Z,2.70
2019-05-20T04:29:32.841Z,3.53
2019-05-20T04:32:02.368Z,3.67
2019-05-20T04:34:32.468Z,4.70
2019-05-20T04:37:02.022Z,4.50
2019-05-20T04:39:31.547Z,3.70
2019-05-20T04:42:01.641Z,3.80
2019-05-20T05:25:37.208Z,11.83
2019-05-20T05:28:06.614Z,9.70
2019-05-20T05:30:36.803Z,10.63
2019-05-20T05:40:59.470Z,7.03
2019-05-20T05:43:28.944Z,7.03
2019-05-20T05:45:58.372Z,6.13
2019-05-20T05:48:27.754Z,7.67
2019-05-20T05:50:57.269Z,5.50
2019-05-20T05:53:26.732Z,5.30
2019-05-20T05:55:56.207Z,5.87
2019-05-20T05:58:25.659Z,9.50
2019-05-20T06:00:55.264Z,9.93
2019-05-20T06:03:24.810Z,8.07
2019-05-20T06:06:10.607Z,9.97
2019-05-20T06:08:25.901Z,8.00
2019-05-20T06:10:55.482Z,10.07
2019-05-20T06:13:24.942Z,10.33
2019-05-20T06:15:54.846Z,11.77
2019-05-20T06:18:24.361Z,9.93
2019-05-20T06:20:53.844Z,9.60
2019-05-20T06:23:23.326Z,9.43
2019-05-20T06:25:52.989Z,9.13
2019-05-20T06:28:22.423Z,10.83
2019-05-20T06:30:51.993Z,9.43
2019-05-20T06:33:21.553Z,10.87
2019-05-20T06:35:51.139Z,10.23
2019-05-20T06:38:42.955Z,10.10
2019-05-20T06:41:12.836Z,9.03
2019-05-20T06:43:42.396Z,9.83
2019-05-20T06:46:11.891Z,8.30
2019-05-20T06:48:41.434Z,11.53
2019-05-20T06:51:10.959Z,9.90
2019-05-20T06:53:40.393Z,8.80
2019-05-20T06:56:09.975Z,9.67
2019-05-20T06:58:39.593Z,8.87
2019-05-20T07:01:09.932Z,8.30
2019-05-20T07:03:39.496Z,8.57
2019-05-20T07:06:09.065Z,8.40
2019-05-20T07:08:38.617Z,8.63
2019-05-20T07:11:08.115Z,9.00
2019-05-20T07:13:37.612Z,10.63
2019-05-20T07:16:07.207Z,9.80
2019-05-20T07:18:36.797Z,10.57
2019-05-20T07:21:06.220Z,10.40
2019-05-20T07:23:35.781Z,10.70
2019-05-20T07:26:05.420Z,10.10
2019-05-20T07:28:34.897Z,10.90
2019-05-20T07:31:04.470Z,10.27
2019-05-20T07:33:33.976Z,10.87
2019-05-20T07:36:03.415Z,10.73
2019-05-20T07:38:32.984Z,10.87
2019-05-20T07:41:02.417Z,9.93
2019-05-20T07:43:32.228Z,12.83
2019-05-20T07:46:03.431Z,11.40
2019-05-20T07:48:33.673Z,17.30
2019-05-20T07:51:04.083Z,12.00
2019-05-20T07:53:34.517Z,11.77
2019-05-20T07:56:12.519Z,11.70
2019-05-20T07:58:45.775Z,14.80
2019-05-20T08:01:15.303Z,12.40
2019-05-20T08:03:44.897Z,12.13
2019-05-20T08:06:14.638Z,12.23
2019-05-20T08:08:44.129Z,12.60
2019-05-20T08:11:13.699Z,12.87
2019-05-20T08:13:43.251Z,12.67
2019-05-20T08:16:12.783Z,12.60
2019-05-20T08:18:42.218Z,12.93
2019-05-20T08:21:11.912Z,13.27
2019-05-20T08:23:41.443Z,12.67
2019-05-20T08:26:10.985Z,14.10
2019-05-20T08:28:40.448Z,14.97
2019-05-20T08:31:09.993Z,13.90
2019-05-20T08:33:40.291Z,14.90
2019-05-20T08:36:12.935Z,14.37
2019-05-20T08:38:42.539Z,18.90
2019-05-20T08:41:12.176Z,13.60
2019-05-20T08:43:41.663Z,16.30
2019-05-20T08:46:11.246Z,15.23
2019-05-20T08:48:40.652Z,15.07
2019-05-20T08:51:10.294Z,15.80
2019-05-20T08:53:40.908Z,15.53
2019-05-20T08:56:10.427Z,14.37
2019-05-20T08:58:39.917Z,15.77
2019-05-20T09:01:11.597Z,17.10
2019-05-20T09:03:40.970Z,17.93
2019-05-20T09:06:10.590Z,19.53
2019-05-20T09:08:40.195Z,18.13
2019-05-20T09:11:09.617Z,17.90
2019-05-20T09:13:39.164Z,18.77
2019-05-20T09:16:08.784Z,17.23
2019-05-20T09:18:38.318Z,19.30
2019-05-20T09:21:08.039Z,19.63
2019-05-20T09:23:37.578Z,23.30
2019-05-20T09:26:07.180Z,22.53
2019-05-20T09:28:37.566Z,25.90
2019-05-20T09:31:07.411Z,23.00
2019-05-20T09:33:37.460Z,25.63
2019-05-20T09:36:07.159Z,23.90
2019-05-20T09:38:37.166Z,27.97
2019-05-20T09:41:06.792Z,29.33
2019-05-20T09:43:36.715Z,29.10
2019-05-20T09:46:08.398Z,26.03
2019-05-20T09:48:37.384Z,25.03
2019-05-20T09:51:06.905Z,24.67
2019-05-20T09:53:36.773Z,23.83
2019-05-20T09:56:06.297Z,28.77
2019-05-20T09:58:35.771Z,25.90
2019-05-20T10:01:05.366Z,27.90
2019-05-20T10:03:34.857Z,23.60
2019-05-20T10:06:04.403Z,27.17
2019-05-20T10:08:41.027Z,28.70
2019-05-20T10:11:05.225Z,30.30
2019-05-20T10:13:34.772Z,26.87
2019-05-20T10:16:04.322Z,33.37
2019-05-20T10:18:38.010Z,32.60
2019-05-20T10:21:05.076Z,32.33
2019-05-20T10:23:37.545Z,45.97
2019-05-20T10:26:07.035Z,28.10
2019-05-20T10:28:41.923Z,27.73
2019-05-20T10:31:07.633Z,28.57
2019-05-20T10:33:37.374Z,26.20
2019-05-20T10:36:06.757Z,25.77
2019-05-20T10:38:54.918Z,28.80
2019-05-20T10:41:08.252Z,31.33
2019-05-20T10:43:37.765Z,31.20
2019-05-20T10:46:07.198Z,29.40
2019-05-20T10:48:36.712Z,30.50
2019-05-20T10:51:06.080Z,27.47
2019-05-20T10:53:35.726Z,28.17
2019-05-20T10:56:05.307Z,30.47
2019-05-20T10:58:34.904Z,27.17
2019-05-20T11:01:04.260Z,28.80
2019-05-20T11:03:33.884Z,28.90
2019-05-20T11:06:03.627Z,28.90
2019-05-20T11:08:33.141Z,32.53
2019-05-20T11:11:02.639Z,31.17
2019-05-20T11:13:32.155Z,30.70
2019-05-20T11:16:01.647Z,30.50
2019-05-20T11:18:31.132Z,29.13
2019-05-20T11:21:00.721Z,32.37
2019-05-20T11:23:30.316Z,33.20
2019-05-20T11:25:59.897Z,29.90
2019-05-20T11:28:29.566Z,37.80
2019-05-20T11:30:59.099Z,37.53
2019-05-20T11:33:28.586Z,34.50
2019-05-20T11:35:58.062Z,33.03
2019-05-20T11:38:27.570Z,32.47
2019-05-20T11:40:57.222Z,38.20
2019-05-20T11:43:26.677Z,34.87
2019-05-20T11:45:56.221Z,30.80
2019-05-20T11:48:25.794Z,33.60
2019-05-20T11:50:55.417Z,29.33
2019-05-20T11:53:24.949Z,30.53
2019-05-20T11:55:54.412Z,27.13
2019-05-20T11:58:23.905Z,29.97
2019-05-20T12:00:53.429Z,29.73
2019-05-20T12:03:22.935Z,30.17
2019-05-20T12:05:52.566Z,30.17
2019-05-20T12:08:22.047Z,30.70
2019-05-20T12:10:51.694Z,29.80
2019-05-20T12:13:21.307Z,31.00
2019-05-20T12:15:50.906Z,30.57
2019-05-20T12:18:20.400Z,31.50
2019-05-20T12:20:49.952Z,29.10
2019-05-20T12:23:19.486Z,33.90
2019-05-20T12:25:49.006Z,31.93
2019-05-20T12:28:18.674Z,32.77
2019-05-20T12:30:48.106Z,35.37
2019-05-20T12:33:19.471Z,36.93
2019-05-20T12:35:48.899Z,34.47
2019-05-20T12:38:18.603Z,34.80
2019-05-20T12:40:48.076Z,37.43
2019-05-20T12:43:17.646Z,34.37
2019-05-20T12:45:47.315Z,32.00
2019-05-20T12:48:16.914Z,36.63
2019-05-20T12:50:46.418Z,38.30
2019-05-20T12:53:16.036Z,38.00
2019-05-20T12:55:45.540Z,38.10
2019-05-20T12:58:15.124Z,41.30
2019-05-20T13:00:44.617Z,39.50
2019-05-20T13:03:14.139Z,38.20
2019-05-20T13:05:43.766Z,37.87
2019-05-20T13:08:13.309Z,39.10
2019-05-20T13:10:42.845Z,39.70
2019-05-20T13:13:12.389Z,37.30
2019-05-20T13:15:41.873Z,38.97
2019-05-20T13:18:11.547Z,35.63
2019-05-20T13:20:41.115Z,35.13
2019-05-20T13:23:13.092Z,35.70
2019-05-20T13:25:41.949Z,36.27
2019-05-20T13:28:11.631Z,34.07
2019-05-20T13:30:41.065Z,32.80
2019-05-20T13:33:10.561Z,34.17
2019-05-20T13:35:40.171Z,31.50
2019-05-20T13:38:09.734Z,32.17
2019-05-20T13:40:46.596Z,31.87
2019-05-20T13:43:10.542Z,32.33
2019-05-20T13:45:40.199Z,34.07
2019-05-20T13:48:37.366Z,31.63
2019-05-20T13:51:06.829Z,29.60
2019-05-20T13:53:36.381Z,33.57
2019-05-20T13:56:05.948Z,34.30
2019-05-20T13:58:35.413Z,36.00
2019-05-20T14:01:05.014Z,31.47
2019-05-20T14:03:34.484Z,32.67
2019-05-20T14:06:04.108Z,32.10
2019-05-20T14:08:33.699Z,34.40
2019-05-20T14:11:04.941Z,36.10
2019-05-20T14:13:34.550Z,37.20
2019-05-20T14:16:04.141Z,34.73
2019-05-20T14:18:33.687Z,35.80
2019-05-20T14:21:03.233Z,34.50
2019-05-20T14:23:32.867Z,32.97
2019-05-20T14:26:02.537Z,36.83
2019-05-20T14:28:32.121Z,33.77
2019-05-20T14:31:05.595Z,36.63
2019-05-20T14:33:33.047Z,31.80
2019-05-20T14:36:02.651Z,38.07
2019-05-20T14:38:32.280Z,36.73
2019-05-20T14:41:01.814Z,38.87
2019-05-20T14:43:31.397Z,35.93
2019-05-20T14:46:00.965Z,38.53
2019-05-20T14:48:30.417Z,39.07
2019-05-20T14:50:59.933Z,37.40
2019-05-20T14:53:29.508Z,34.70
2019-05-20T14:55:58.962Z,34.57
2019-05-20T14:58:28.492Z,36.60
2019-05-20T15:00:58.032Z,36.60
2019-05-20T15:03:27.614Z,34.53
2019-05-20T15:05:57.152Z,33.27
2019-05-20T15:08:26.733Z,34.30
2019-05-20T15:10:56.322Z,34.03
2019-05-20T15:13:25.698Z,32.30
2019-05-20T15:15:55.335Z,33.87
2019-05-20T15:18:24.878Z,33.17
2019-05-20T15:20:54.322Z,30.83
2019-05-20T15:23:24.040Z,33.20
2019-05-20T15:25:53.498Z,33.53
2019-05-20T15:28:23.039Z,33.80
2019-05-20T15:30:52.610Z,31.30
2019-05-20T15:33:22.169Z,33.57
2019-05-20T15:35:51.700Z,37.40
2019-05-20T15:38:21.134Z,34.27
2019-05-20T15:40:50.727Z,39.77
2019-05-20T15:43:20.340Z,38.53
2019-05-20T15:45:49.826Z,36.80
2019-05-20T15:48:19.447Z,39.27
2019-05-20T15:50:48.904Z,40.80
2019-05-20T15:53:18.404Z,38.10
2019-05-20T15:55:47.984Z,37.40
2019-05-20T15:58:17.583Z,42.73
2019-05-20T16:00:47.360Z,36.10
2019-05-20T16:03:16.896Z,31.23
2019-05-20T16:05:46.411Z,33.63
2019-05-20T16:08:15.980Z,30.90
2019-05-20T16:12:03.455Z,31.03
2019-05-20T16:14:12.218Z,32.37
2019-05-20T16:16:42.145Z,34.40
2019-05-20T16:19:31.002Z,36.47
2019-05-20T16:22:01.389Z,35.20
2019-05-20T16:24:30.961Z,35.80
2019-05-20T16:27:00.913Z,34.87
2019-05-20T16:29:30.651Z,32.33
2019-05-20T16:32:00.250Z,33.20
2019-05-20T16:34:29.866Z,35.83
2019-05-20T16:36:59.424Z,35.90
2019-05-20T16:39:31.037Z,32.60
2019-05-20T16:42:00.667Z,31.97
2019-05-20T16:44:30.325Z,30.63
2019-05-20T16:46:59.975Z,33.67
2019-05-20T16:49:30.460Z,28.33
2019-05-20T16:52:00.041Z,32.20
2019-05-20T16:54:29.931Z,31.23
2019-05-20T16:56:59.632Z,32.60
2019-05-20T16:59:29.163Z,33.37
2019-05-20T17:01:58.732Z,30.80
2019-05-20T17:04:28.253Z,27.97
2019-05-20T17:06:57.728Z,36.20
2019-05-20T17:09:27.195Z,33.57
2019-05-20T17:11:56.775Z,32.43
2019-05-20T17:14:26.332Z,33.67
2019-05-20T17:16:56.001Z,31.73
2019-05-20T17:19:25.439Z,34.53
2019-05-20T17:21:54.920Z,31.50
2019-05-20T17:24:42.033Z,35.00
2019-05-20T17:27:11.689Z,32.90
2019-05-20T17:29:41.262Z,39.00
2019-05-20T17:32:11.012Z,29.60
2019-05-20T17:34:40.612Z,30.73
2019-05-20T17:37:10.157Z,34.53
2019-05-20T17:39:39.734Z,29.30
2019-05-20T17:42:09.320Z,34.63
2019-05-20T17:44:38.950Z,32.00
2019-05-20T17:47:08.443Z,30.40
2019-05-20T17:49:37.896Z,30.87
2019-05-20T17:52:07.395Z,34.30
2019-05-20T17:54:36.873Z,32.63
2019-05-20T17:57:06.364Z,33.87
2019-05-20T17:59:35.914Z,31.10
2019-05-20T18:02:07.213Z,33.03
2019-05-20T18:04:36.770Z,33.37
2019-05-20T18:07:06.404Z,38.97
2019-05-20T18:09:37.624Z,33.13
2019-05-20T18:12:07.202Z,36.40
2019-05-20T18:14:38.755Z,41.10
2019-05-20T18:17:08.468Z,46.00
2019-05-20T18:19:38.010Z,41.77
2019-05-20T18:22:07.597Z,40.27
2019-05-20T18:24:37.279Z,37.97
2019-05-20T18:27:06.883Z,43.90
2019-05-20T18:29:36.371Z,41.50
2019-05-20T18:32:06.011Z,46.20
2019-05-20T18:34:35.948Z,46.63
2019-05-20T18:37:05.864Z,45.60
2019-05-20T18:39:35.367Z,51.87
2019-05-20T18:42:04.911Z,64.43
2019-05-20T18:44:34.447Z,46.13
2019-05-20T18:47:03.964Z,51.87
2019-05-20T18:49:33.597Z,54.63
2019-05-20T18:52:03.121Z,52.53
2019-05-20T18:54:32.859Z,57.00
2019-05-20T18:57:02.480Z,62.17
2019-05-20T18:59:32.152Z,56.27
2019-05-20T19:02:05.381Z,80.30
2019-05-20T19:04:32.981Z,63.13
2019-05-20T19:07:02.608Z,67.03
2019-05-20T19:09:32.085Z,61.10
2019-05-20T19:12:01.621Z,66.33
2019-05-20T19:14:31.190Z,58.67
2019-05-20T19:17:00.766Z,60.50
2019-05-20T19:19:30.752Z,56.93
2019-05-20T19:22:00.352Z,50.93
2019-05-20T19:24:30.045Z,56.33
2019-05-20T19:26:59.486Z,62.60
2019-05-20T19:29:29.008Z,61.10
2019-05-20T19:32:01.752Z,59.13
2019-05-20T19:34:29.943Z,63.30
2019-05-20T19:36:59.495Z,70.97
2019-05-20T19:39:29.113Z,73.77
2019-05-20T19:41:58.966Z,67.90
2019-05-20T19:44:28.502Z,73.27
2019-05-20T19:46:58.002Z,71.50
2019-05-20T19:49:27.529Z,71.50
2019-05-20T19:51:57.084Z,69.13
2019-05-20T19:54:26.544Z,74.90
2019-05-20T19:56:56.223Z,65.67
2019-05-20T19:59:26.021Z,65.00
2019-05-20T20:01:55.546Z,64.10
2019-05-20T20:04:24.959Z,46.93
2019-05-20T20:06:54.553Z,33.83
2019-05-20T20:09:24.191Z,33.50
2019-05-20T20:11:53.688Z,28.83
2019-05-20T20:14:23.103Z,28.60
2019-05-20T20:16:52.620Z,29.00
2019-05-20T20:19:22.098Z,21.93
2019-05-20T20:21:51.637Z,21.70
2019-05-20T20:24:21.088Z,15.53
2019-05-20T20:26:50.788Z,15.43
2019-05-20T20:29:20.359Z,12.83
2019-05-20T20:31:49.925Z,11.80
2019-05-20T20:34:19.526Z,9.23
2019-05-20T20:36:49.030Z,8.33
2019-05-20T20:39:20.883Z,9.57
2019-05-20T20:41:49.996Z,8.40
2019-05-20T20:44:19.464Z,5.80
2019-05-20T20:46:49.031Z,6.47
2019-05-20T20:49:18.564Z,5.63
2019-05-20T20:51:48.390Z,8.00
2019-05-20T20:54:21.393Z,6.77
2019-05-20T20:56:50.916Z,7.23
2019-05-20T20:59:20.401Z,6.40
2019-05-20T21:01:54.094Z,5.07
2019-05-20T21:04:21.544Z,5.23
2019-05-20T21:06:51.394Z,5.13
2019-05-20T21:09:24.252Z,4.97
2019-05-20T21:11:54.096Z,4.53
2019-05-20T21:14:23.586Z,4.40
2019-05-20T21:16:53.114Z,5.57
2019-05-20T21:19:22.684Z,8.60
2019-05-20T21:21:52.127Z,6.70
2019-05-20T21:24:22.126Z,6.57
2019-05-20T21:26:51.563Z,4.90
2019-05-20T21:29:21.096Z,4.77
2019-05-20T21:31:50.576Z,5.07
2019-05-20T21:34:20.182Z,5.37
2019-05-20T21:36:50.017Z,5.10
2019-05-20T21:39:19.478Z,6.00
2019-05-20T21:41:48.920Z,7.27
2019-05-20T21:44:18.415Z,13.70
2019-05-20T21:47:12.169Z,18.07
2019-05-20T21:49:41.818Z,8.80
2019-05-20T21:52:11.336Z,11.20
2019-05-20T21:54:40.859Z,9.53
2019-05-20T21:57:10.358Z,7.07
2019-05-20T21:59:39.957Z,12.00
2019-05-20T22:02:09.533Z,7.23
2019-05-20T22:04:39.056Z,8.20
2019-05-20T22:07:08.529Z,7.10
2019-05-20T22:09:38.114Z,8.43
2019-05-20T22:12:07.623Z,11.33
2019-05-20T22:14:37.231Z,14.77
2019-05-20T22:17:06.786Z,21.47
2019-05-20T22:19:36.351Z,20.07
2019-05-20T22:22:14.588Z,26.00
2019-05-20T22:24:44.214Z,31.53
2019-05-20T22:27:13.758Z,27.10
2019-05-20T22:29:43.334Z,34.00
2019-05-20T22:32:12.863Z,40.03
2019-05-20T22:34:53.061Z,38.97
2019-05-20T22:37:13.727Z,43.67
2019-05-20T22:39:43.297Z,46.27
2019-05-20T22:42:12.816Z,48.20
2019-05-20T22:44:42.299Z,47.00
2019-05-20T22:47:11.949Z,56.40
2019-05-20T22:49:41.456Z,53.97
2019-05-20T22:52:10.931Z,53.03
2019-05-20T22:54:40.599Z,49.63
2019-05-20T22:57:10.133Z,48.33
2019-05-20T22:59:39.628Z,52.80
2019-05-20T23:02:09.184Z,60.43
2019-05-20T23:04:38.661Z,58.07
2019-05-20T23:07:08.217Z,55.97
2019-05-20T23:09:37.818Z,58.73
2019-05-20T23:12:07.318Z,49.60
2019-05-20T23:14:36.787Z,57.67
2019-05-20T23:17:06.426Z,53.90
2019-05-20T23:19:36.067Z,56.60
2019-05-20T23:22:05.695Z,53.63
2019-05-20T23:24:35.212Z,57.77
2019-05-20T23:27:04.701Z,61.47
2019-05-20T23:29:34.291Z,56.77
2019-05-20T23:32:03.856Z,52.77
2019-05-20T23:34:33.456Z,54.57
2019-05-20T23:37:02.945Z,52.67
2019-05-20T23:39:32.473Z,50.43
